Lake Mc Donald, Montana
Current Conditions -  °F | °C
As of 9:55 PM on Monday 20 Oct 2014 (Local Time) from KGPI Reporting Station
Clear Clear  
Wind Chill: 45°   Ceiling: Unl
Heat Index: 45°   Visibility: 10mi
Dew Point: 39°   Wind: 0mph
Humidity: 80%   Direction: NA
Pressure: 29.7"   Gusts: NA
Location:  48.6192°N, 113.874°W
Report Text: KGPI 210355Z 00000KT 10SM CLR 07/04 A2970 RMK AO2 SLP068 T00720039
Loading
Personal Weather Stations






























Interactive Weather Map
Tropical Storm Tracking
New forecast layout! Learn more

10-Day Weather Forecast

Advertisements
Track Severe Weather on mobile